sensor_id;sensor_type;location;lat;lon;timestamp;pressure;altitude;pressure_sealevel;temperature
85840;BMP280;76322;54.686;9.332;2024-03-08T17:24:46;101469.41;;;7.60
85840;BMP280;76322;54.686;9.332;2024-03-08T17:25:47;101470.25;;;7.57
85840;BMP280;76322;54.686;9.332;2024-03-08T17:26:50;101469.59;;;7.53
85840;BMP280;76322;54.686;9.332;2024-03-08T17:27:55;101466.94;;;7.49
85840;BMP280;76322;54.686;9.332;2024-03-08T17:28:57;101465.53;;;7.45
85840;BMP280;76322;54.686;9.332;2024-03-08T17:29:59;101463.66;;;7.42
85840;BMP280;76322;54.686;9.332;2024-03-08T17:31:04;101457.19;;;7.36
85840;BMP280;76322;54.686;9.332;2024-03-08T17:32:08;101459.91;;;7.36
85840;BMP280;76322;54.686;9.332;2024-03-08T17:33:10;101463.16;;;7.31
85840;BMP280;76322;54.686;9.332;2024-03-08T17:34:12;101465.94;;;7.27
85840;BMP280;76322;54.686;9.332;2024-03-08T17:35:20;101458.78;;;7.21
85840;BMP280;76322;54.686;9.332;2024-03-08T17:36:22;101458.16;;;7.13
85840;BMP280;76322;54.686;9.332;2024-03-08T17:37:24;101455.97;;;7.08
85840;BMP280;76322;54.686;9.332;2024-03-08T17:38:25;101453.31;;;7.05
85840;BMP280;76322;54.686;9.332;2024-03-08T17:39:27;101461.53;;;7.01
85840;BMP280;76322;54.686;9.332;2024-03-08T17:40:31;101453.06;;;6.99
85840;BMP280;76322;54.686;9.332;2024-03-08T17:41:32;101457.84;;;6.95
85840;BMP280;76322;54.686;9.332;2024-03-08T17:42:34;101457.53;;;6.90
85840;BMP280;76322;54.686;9.332;2024-03-08T17:43:35;101459.59;;;6.86
85840;BMP280;76322;54.686;9.332;2024-03-08T17:44:37;101445.34;;;6.82
85840;BMP280;76322;54.686;9.332;2024-03-08T17:45:41;101458.56;;;6.80
85840;BMP280;76322;54.686;9.332;2024-03-08T17:46:46;101452.44;;;6.76
85840;BMP280;76322;54.686;9.332;2024-03-08T17:47:52;101449.06;;;6.72
85840;BMP280;76322;54.686;9.332;2024-03-08T17:48:54;101446.84;;;6.67
85840;BMP280;76322;54.686;9.332;2024-03-08T17:49:55;101457.78;;;6.63
85840;BMP280;76322;54.686;9.332;2024-03-08T17:50:57;101447.78;;;6.60
85840;BMP280;76322;54.686;9.332;2024-03-08T17:51:59;101445.13;;;6.57
85840;BMP280;76322;54.686;9.332;2024-03-08T17:53:06;101441.31;;;6.54
85840;BMP280;76322;54.686;9.332;2024-03-08T17:54:09;101442.16;;;6.51
85840;BMP280;76322;54.686;9.332;2024-03-08T17:55:15;101439.56;;;6.48
85840;BMP280;76322;54.686;9.332;2024-03-08T17:56:17;101444.59;;;6.46
85840;BMP280;76322;54.686;9.332;2024-03-08T17:57:18;101436.97;;;6.41
85840;BMP280;76322;54.686;9.332;2024-03-08T17:58:21;101440.53;;;6.38
85840;BMP280;76322;54.686;9.332;2024-03-08T17:59:22;101437.13;;;6.34
85840;BMP280;76322;54.686;9.332;2024-03-08T18:00:23;101439.91;;;6.30
85840;BMP280;76322;54.686;9.332;2024-03-08T18:01:36;101435.31;;;6.27
85840;BMP280;76322;54.686;9.332;2024-03-08T18:02:38;101444.69;;;6.23
85840;BMP280;76322;54.686;9.332;2024-03-08T18:03:40;101437.78;;;6.22
85840;BMP280;76322;54.686;9.332;2024-03-08T18:04:41;101442.47;;;6.18
85840;BMP280;76322;54.686;9.332;2024-03-08T18:05:43;101434.00;;;6.16
85840;BMP280;76322;54.686;9.332;2024-03-08T18:06:47;101433.66;;;6.14
85840;BMP280;76322;54.686;9.332;2024-03-08T18:07:51;101430.59;;;6.12
85840;BMP280;76322;54.686;9.332;2024-03-08T18:08:53;101434.59;;;6.07
85840;BMP280;76322;54.686;9.332;2024-03-08T18:09:55;101437.34;;;6.04
85840;BMP280;76322;54.686;9.332;2024-03-08T18:10:57;101435.13;;;5.99
85840;BMP280;76322;54.686;9.332;2024-03-08T18:11:59;101426.63;;;5.97
85840;BMP280;76322;54.686;9.332;2024-03-08T18:13:03;101427.50;;;5.94
85840;BMP280;76322;54.686;9.332;2024-03-08T18:14:11;101429.09;;;5.91
85840;BMP280;76322;54.686;9.332;2024-03-08T18:15:15;101429.91;;;5.88
85840;BMP280;76322;54.686;9.332;2024-03-08T18:16:26;101432.66;;;5.85
85840;BMP280;76322;54.686;9.332;2024-03-08T18:17:27;101429.63;;;5.83
85840;BMP280;76322;54.686;9.332;2024-03-08T18:18:29;101427.78;;;5.80
85840;BMP280;76322;54.686;9.332;2024-03-08T18:19:30;101426.25;;;5.79
85840;BMP280;76322;54.686;9.332;2024-03-08T18:20:33;101421.28;;;5.74
85840;BMP280;76322;54.686;9.332;2024-03-08T18:21:36;101430.59;;;5.73
85840;BMP280;76322;54.686;9.332;2024-03-08T18:22:37;101428.72;;;5.70
85840;BMP280;76322;54.686;9.332;2024-03-08T18:23:39;101430.75;;;5.66
85840;BMP280;76322;54.686;9.332;2024-03-08T18:24:41;101435.78;;;5.64
85840;BMP280;76322;54.686;9.332;2024-03-08T18:25:43;101428.50;;;5.61
85840;BMP280;76322;54.686;9.332;2024-03-08T18:26:48;101431.28;;;5.57
85840;BMP280;76322;54.686;9.332;2024-03-08T18:27:50;101437.09;;;5.56
85840;BMP280;76322;54.686;9.332;2024-03-08T18:28:51;101432.13;;;5.51
85840;BMP280;76322;54.686;9.332;2024-03-08T18:29:53;101424.84;;;5.48
85840;BMP280;76322;54.686;9.332;2024-03-08T18:30:55;101422.97;;;5.45
85840;BMP280;76322;54.686;9.332;2024-03-08T18:31:57;101425.34;;;5.43
85840;BMP280;76322;54.686;9.332;2024-03-08T18:32:58;101425.75;;;5.41
85840;BMP280;76322;54.686;9.332;2024-03-08T18:34:00;101426.16;;;5.40
85840;BMP280;76322;54.686;9.332;2024-03-08T18:35:01;101428.50;;;5.38
85840;BMP280;76322;54.686;9.332;2024-03-08T18:36:03;101425.44;;;5.36
85840;BMP280;76322;54.686;9.332;2024-03-08T18:37:07;101424.34;;;5.33
85840;BMP280;76322;54.686;9.332;2024-03-08T18:38:13;101416.63;;;5.32
85840;BMP280;76322;54.686;9.332;2024-03-08T18:39:15;101420.16;;;5.29
85840;BMP280;76322;54.686;9.332;2024-03-08T18:40:19;101419.81;;;5.27
85840;BMP280;76322;54.686;9.332;2024-03-08T18:41:27;101419.44;;;5.25
85840;BMP280;76322;54.686;9.332;2024-03-08T18:42:29;101419.09;;;5.23
85840;BMP280;76322;54.686;9.332;2024-03-08T18:43:31;101413.31;;;5.21
85840;BMP280;76322;54.686;9.332;2024-03-08T18:44:35;101415.69;;;5.19
85840;BMP280;76322;54.686;9.332;2024-03-08T18:45:37;101412.25;;;5.18
85840;BMP280;76322;54.686;9.332;2024-03-08T18:46:39;101416.50;;;5.16
85840;BMP280;76322;54.686;9.332;2024-03-08T18:47:47;101414.97;;;5.15
85840;BMP280;76322;54.686;9.332;2024-03-08T18:48:49;101416.16;;;5.14
85840;BMP280;76322;54.686;9.332;2024-03-08T18:49:51;101417.34;;;5.13
85840;BMP280;76322;54.686;9.332;2024-03-08T18:50:52;101414.63;;;5.13
85840;BMP280;76322;54.686;9.332;2024-03-08T18:51:55;101414.28;;;5.11
85840;BMP280;76322;54.686;9.332;2024-03-08T18:52:57;101414.28;;;5.11
85840;BMP280;76322;54.686;9.332;2024-03-08T18:53:59;101415.09;;;5.08
85840;BMP280;76322;54.686;9.332;2024-03-08T18:55:02;101405.84;;;5.05
85840;BMP280;76322;54.686;9.332;2024-03-08T18:56:03;101411.25;;;5.05
85840;BMP280;76322;54.686;9.332;2024-03-08T18:57:06;101408.97;;;5.04
85840;BMP280;76322;54.686;9.332;2024-03-08T18:58:09;101404.00;;;5.02
85840;BMP280;76322;54.686;9.332;2024-03-08T18:59:11;101403.63;;;5.00
85840;BMP280;76322;54.686;9.332;2024-03-08T19:00:16;101404.03;;;4.99
85840;BMP280;76322;54.686;9.332;2024-03-08T19:01:25;101400.59;;;4.98
85840;BMP280;76322;54.686;9.332;2024-03-08T19:02:29;101405.22;;;4.98
85840;BMP280;76322;54.686;9.332;2024-03-08T19:03:31;101399.03;;;4.97
85840;BMP280;76322;54.686;9.332;2024-03-08T19:04:33;101395.22;;;4.95
85840;BMP280;76322;54.686;9.332;2024-03-08T19:05:37;101388.28;;;4.94
85840;BMP280;76322;54.686;9.332;2024-03-08T19:06:41;101394.84;;;4.93
85840;BMP280;76322;54.686;9.332;2024-03-08T19:07:44;101398.34;;;4.90
85840;BMP280;76322;54.686;9.332;2024-03-08T19:08:46;101389.09;;;4.91
85840;BMP280;76322;54.686;9.332;2024-03-08T19:09:49;101392.94;;;4.90
85840;BMP280;76322;54.686;9.332;2024-03-08T19:10:51;101386.78;;;4.89
85840;BMP280;76322;54.686;9.332;2024-03-08T19:11:55;101392.19;;;4.89
85840;BMP280;76322;54.686;9.332;2024-03-08T19:12:57;101387.97;;;4.88
85840;BMP280;76322;54.686;9.332;2024-03-08T19:14:02;101382.97;;;4.87
85840;BMP280;76322;54.686;9.332;2024-03-08T19:15:04;101383.41;;;4.85
85840;BMP280;76322;54.686;9.332;2024-03-08T19:16:09;101393.44;;;4.85
85840;BMP280;76322;54.686;9.332;2024-03-08T19:17:15;101381.84;;;4.84
85840;BMP280;76322;54.686;9.332;2024-03-08T19:18:17;101378.41;;;4.84
85840;BMP280;76322;54.686;9.332;2024-03-08T19:19:19;101383.03;;;4.83
85840;BMP280;76322;54.686;9.332;2024-03-08T19:20:25;101382.25;;;4.83
85840;BMP280;76322;54.686;9.332;2024-03-08T19:21:27;101388.06;;;4.81
85840;BMP280;76322;54.686;9.332;2024-03-08T19:22:33;101381.16;;;4.80
85840;BMP280;76322;54.686;9.332;2024-03-08T19:23:34;101379.63;;;4.79
85840;BMP280;76322;54.686;9.332;2024-03-08T19:24:36;101374.63;;;4.78
85840;BMP280;76322;54.686;9.332;2024-03-08T19:25:39;101375.81;;;4.77
85840;BMP280;76322;54.686;9.332;2024-03-08T19:26:45;101378.50;;;4.77
85840;BMP280;76322;54.686;9.332;2024-03-08T19:27:50;101372.75;;;4.75
85840;BMP280;76322;54.686;9.332;2024-03-08T19:28:51;101369.66;;;4.73
85840;BMP280;76322;54.686;9.332;2024-03-08T19:29:53;101366.22;;;4.72
85840;BMP280;76322;54.686;9.332;2024-03-08T19:30:56;101362.72;;;4.72
85840;BMP280;76322;54.686;9.332;2024-03-08T19:31:57;101367.03;;;4.69
85840;BMP280;76322;54.686;9.332;2024-03-08T19:33:01;101366.25;;;4.69
85840;BMP280;76322;54.686;9.332;2024-03-08T19:34:03;101367.47;;;4.68
85840;BMP280;76322;54.686;9.332;2024-03-08T19:35:05;101365.91;;;4.67
85840;BMP280;76322;54.686;9.332;2024-03-08T19:36:12;101357.06;;;4.66
85840;BMP280;76322;54.686;9.332;2024-03-08T19:37:19;101364.03;;;4.64
85840;BMP280;76322;54.686;9.332;2024-03-08T19:38:21;101359.03;;;4.62
85840;BMP280;76322;54.686;9.332;2024-03-08T19:39:22;101348.63;;;4.61
85840;BMP280;76322;54.686;9.332;2024-03-08T19:40:26;101356.38;;;4.59
85840;BMP280;76322;54.686;9.332;2024-03-08T19:41:33;101356.78;;;4.57
85840;BMP280;76322;54.686;9.332;2024-03-08T19:42:34;101353.31;;;4.57
85840;BMP280;76322;54.686;9.332;2024-03-08T19:43:36;101356.41;;;4.55
85840;BMP280;76322;54.686;9.332;2024-03-08T19:44:38;101352.59;;;4.53
85840;BMP280;76322;54.686;9.332;2024-03-08T19:45:41;101357.25;;;4.52
85840;BMP280;76322;54.686;9.332;2024-03-08T19:46:44;101366.19;;;4.49
85840;BMP280;76322;54.686;9.332;2024-03-08T19:47:47;101358.88;;;4.46
85840;BMP280;76322;54.686;9.332;2024-03-08T19:48:49;101351.94;;;4.45
85840;BMP280;76322;54.686;9.332;2024-03-08T19:49:51;101352.78;;;4.42
85840;BMP280;76322;54.686;9.332;2024-03-08T19:50:52;101355.88;;;4.41
85840;BMP280;76322;54.686;9.332;2024-03-08T19:51:55;101354.31;;;4.40
85840;BMP280;76322;54.686;9.332;2024-03-08T19:52:57;101368.22;;;4.38
85840;BMP280;76322;54.686;9.332;2024-03-08T19:54:05;101364.78;;;4.38
85840;BMP280;76322;54.686;9.332;2024-03-08T19:55:08;101364.81;;;4.34
85840;BMP280;76322;54.686;9.332;2024-03-08T19:56:11;101354.41;;;4.33
85840;BMP280;76322;54.686;9.332;2024-03-08T19:57:12;101350.63;;;4.30
85840;BMP280;76322;54.686;9.332;2024-03-08T19:58:17;101357.94;;;4.30
85840;BMP280;76322;54.686;9.332;2024-03-08T19:59:20;101351.41;;;4.27
85840;BMP280;76322;54.686;9.332;2024-03-08T20:00:21;101359.16;;;4.25
85840;BMP280;76322;54.686;9.332;2024-03-08T20:01:26;101362.25;;;4.24
85840;BMP280;76322;54.686;9.332;2024-03-08T20:02:28;101349.56;;;4.21
85840;BMP280;76322;54.686;9.332;2024-03-08T20:03:32;101346.50;;;4.19
85840;BMP280;76322;54.686;9.332;2024-03-08T20:04:34;101353.09;;;4.18
85840;BMP280;76322;54.686;9.332;2024-03-08T20:05:36;101348.84;;;4.17
85840;BMP280;76322;54.686;9.332;2024-03-08T20:06:37;101348.13;;;4.13
85840;BMP280;76322;54.686;9.332;2024-03-08T20:07:47;101346.59;;;4.12
85840;BMP280;76322;54.686;9.332;2024-03-08T20:08:53;101347.75;;;4.11
85840;BMP280;76322;54.686;9.332;2024-03-08T20:09:58;101347.44;;;4.09
85840;BMP280;76322;54.686;9.332;2024-03-08T20:10:59;101347.06;;;4.07
85840;BMP280;76322;54.686;9.332;2024-03-08T20:12:06;101346.31;;;4.06
85840;BMP280;76322;54.686;9.332;2024-03-08T20:13:09;101347.09;;;4.03
85840;BMP280;76322;54.686;9.332;2024-03-08T20:14:13;101347.91;;;4.00
85840;BMP280;76322;54.686;9.332;2024-03-08T20:15:17;101342.91;;;3.99
85840;BMP280;76322;54.686;9.332;2024-03-08T20:16:18;101349.47;;;3.98
85840;BMP280;76322;54.686;9.332;2024-03-08T20:17:20;101347.19;;;3.96
85840;BMP280;76322;54.686;9.332;2024-03-08T20:18:21;101341.00;;;3.96
85840;BMP280;76322;54.686;9.332;2024-03-08T20:19:28;101339.88;;;3.93
85840;BMP280;76322;54.686;9.332;2024-03-08T20:20:30;101351.09;;;3.92
85840;BMP280;76322;54.686;9.332;2024-03-08T20:21:32;101343.38;;;3.90
85840;BMP280;76322;54.686;9.332;2024-03-08T20:22:33;101349.22;;;3.89
85840;BMP280;76322;54.686;9.332;2024-03-08T20:23:35;101350.38;;;3.88
85840;BMP280;76322;54.686;9.332;2024-03-08T20:24:36;101337.28;;;3.86
85840;BMP280;76322;54.686;9.332;2024-03-08T20:25:39;101346.94;;;3.84
85840;BMP280;76322;54.686;9.332;2024-03-08T20:26:47;101332.69;;;3.83
85840;BMP280;76322;54.686;9.332;2024-03-08T20:27:50;101343.91;;;3.82
85840;BMP280;76322;54.686;9.332;2024-03-08T20:28:55;101342.00;;;3.79
85840;BMP280;76322;54.686;9.332;2024-03-08T20:29:58;101340.44;;;3.78
85840;BMP280;76322;54.686;9.332;2024-03-08T20:31:00;101337.75;;;3.78
85840;BMP280;76322;54.686;9.332;2024-03-08T20:32:02;101332.41;;;3.74
85840;BMP280;76322;54.686;9.332;2024-03-08T20:33:04;101342.81;;;3.72
85840;BMP280;76322;54.686;9.332;2024-03-08T20:34:06;101339.78;;;3.70
85840;BMP280;76322;54.686;9.332;2024-03-08T20:35:08;101341.69;;;3.70
85840;BMP280;76322;54.686;9.332;2024-03-08T20:36:11;101335.94;;;3.68
85840;BMP280;76322;54.686;9.332;2024-03-08T20:37:13;101335.19;;;3.67
85840;BMP280;76322;54.686;9.332;2024-03-08T20:38:15;101335.59;;;3.66
85840;BMP280;76322;54.686;9.332;2024-03-08T20:39:22;101339.44;;;3.65
85840;BMP280;76322;54.686;9.332;2024-03-08T20:40:27;101339.09;;;3.63
85840;BMP280;76322;54.686;9.332;2024-03-08T20:41:43;101341.41;;;3.61
85840;BMP280;76322;54.686;9.332;2024-03-08T20:42:45;101344.50;;;3.59
85840;BMP280;76322;54.686;9.332;2024-03-08T20:43:49;101339.50;;;3.58
85840;BMP280;76322;54.686;9.332;2024-03-08T20:44:50;101345.31;;;3.56
85840;BMP280;76322;54.686;9.332;2024-03-08T20:45:52;101340.31;;;3.55
85840;BMP280;76322;54.686;9.332;2024-03-08T20:46:55;101339.94;;;3.53
85840;BMP280;76322;54.686;9.332;2024-03-08T20:47:57;101335.34;;;3.50
85840;BMP280;76322;54.686;9.332;2024-03-08T20:48:58;101329.97;;;3.50
85840;BMP280;76322;54.686;9.332;2024-03-08T20:50:03;101329.97;;;3.50
85840;BMP280;76322;54.686;9.332;2024-03-08T20:51:09;101332.28;;;3.48
85840;BMP280;76322;54.686;9.332;2024-03-08T20:52:12;101329.97;;;3.46
85840;BMP280;76322;54.686;9.332;2024-03-08T20:53:15;101334.63;;;3.46
85840;BMP280;76322;54.686;9.332;2024-03-08T20:54:17;101329.63;;;3.44
85840;BMP280;76322;54.686;9.332;2024-03-08T20:55:18;101322.38;;;3.41
85840;BMP280;76322;54.686;9.332;2024-03-08T20:56:23;101326.22;;;3.40
85840;BMP280;76322;54.686;9.332;2024-03-08T20:57:26;101312.38;;;3.38
85840;BMP280;76322;54.686;9.332;2024-03-08T20:58:27;101328.19;;;3.36
85840;BMP280;76322;54.686;9.332;2024-03-08T20:59:29;101320.47;;;3.35
85840;BMP280;76322;54.686;9.332;2024-03-08T21:00:31;101320.13;;;3.33
85840;BMP280;76322;54.686;9.332;2024-03-08T21:01:36;101311.66;;;3.31
85840;BMP280;76322;54.686;9.332;2024-03-08T21:02:38;101314.34;;;3.31
85840;BMP280;76322;54.686;9.332;2024-03-08T21:03:39;101313.97;;;3.29
85840;BMP280;76322;54.686;9.332;2024-03-08T21:04:41;101311.69;;;3.27
85840;BMP280;76322;54.686;9.332;2024-03-08T21:05:46;101303.25;;;3.25
85840;BMP280;76322;54.686;9.332;2024-03-08T21:06:51;101314.41;;;3.24
85840;BMP280;76322;54.686;9.332;2024-03-08T21:07:52;101307.50;;;3.23
85840;BMP280;76322;54.686;9.332;2024-03-08T21:08:54;101303.25;;;3.22
85840;BMP280;76322;54.686;9.332;2024-03-08T21:09:57;101307.13;;;3.21
85840;BMP280;76322;54.686;9.332;2024-03-08T21:10:58;101299.88;;;3.18
85840;BMP280;76322;54.686;9.332;2024-03-08T21:12:00;101307.16;;;3.17
85840;BMP280;76322;54.686;9.332;2024-03-08T21:13:04;101294.53;;;3.14
85840;BMP280;76322;54.686;9.332;2024-03-08T21:14:06;101301.81;;;3.14
85840;BMP280;76322;54.686;9.332;2024-03-08T21:15:08;101309.91;;;3.14
85840;BMP280;76322;54.686;9.332;2024-03-08T21:16:10;101296.84;;;3.12
85840;BMP280;76322;54.686;9.332;2024-03-08T21:17:13;101297.22;;;3.11
85840;BMP280;76322;54.686;9.332;2024-03-08T21:18:14;101301.09;;;3.10
85840;BMP280;76322;54.686;9.332;2024-03-08T21:19:15;101302.63;;;3.11
85840;BMP280;76322;54.686;9.332;2024-03-08T21:20:18;101298.78;;;3.08
85840;BMP280;76322;54.686;9.332;2024-03-08T21:21:20;101298.78;;;3.08
85840;BMP280;76322;54.686;9.332;2024-03-08T21:22:22;101300.34;;;3.05
85840;BMP280;76322;54.686;9.332;2024-03-08T21:23:23;101294.59;;;3.03
85840;BMP280;76322;54.686;9.332;2024-03-08T21:24:26;101294.22;;;3.01
85840;BMP280;76322;54.686;9.332;2024-03-08T21:25:30;101301.16;;;3.03
85840;BMP280;76322;54.686;9.332;2024-03-08T21:26:32;101292.28;;;3.02
85840;BMP280;76322;54.686;9.332;2024-03-08T21:27:33;101290.00;;;3.00
85840;BMP280;76322;54.686;9.332;2024-03-08T21:28:36;101288.09;;;2.97
85840;BMP280;76322;54.686;9.332;2024-03-08T21:29:39;101285.00;;;2.95
85840;BMP280;76322;54.686;9.332;2024-03-08T21:30:40;101291.19;;;2.96
85840;BMP280;76322;54.686;9.332;2024-03-08T21:31:42;101280.78;;;2.94
85840;BMP280;76322;54.686;9.332;2024-03-08T21:32:44;101281.97;;;2.93
85840;BMP280;76322;54.686;9.332;2024-03-08T21:33:46;101280.41;;;2.92
85840;BMP280;76322;54.686;9.332;2024-03-08T21:34:49;101285.06;;;2.92
85840;BMP280;76322;54.686;9.332;2024-03-08T21:35:50;101278.56;;;2.89
85840;BMP280;76322;54.686;9.332;2024-03-08T21:36:52;101272.41;;;2.89
85840;BMP280;76322;54.686;9.332;2024-03-08T21:37:53;101281.66;;;2.88
85840;BMP280;76322;54.686;9.332;2024-03-08T21:38:55;101272.03;;;2.87
85840;BMP280;76322;54.686;9.332;2024-03-08T21:39:57;101279.34;;;2.86
85840;BMP280;76322;54.686;9.332;2024-03-08T21:40:58;101273.59;;;2.84
85840;BMP280;76322;54.686;9.332;2024-03-08T21:42:05;101275.16;;;2.82
85840;BMP280;76322;54.686;9.332;2024-03-08T21:43:06;101275.53;;;2.80
85840;BMP280;76322;54.686;9.332;2024-03-08T21:44:08;101274.03;;;2.79
85840;BMP280;76322;54.686;9.332;2024-03-08T21:45:09;101275.16;;;2.78
85840;BMP280;76322;54.686;9.332;2024-03-08T21:46:12;101274.41;;;2.78
85840;BMP280;76322;54.686;9.332;2024-03-08T21:47:16;101272.13;;;2.76
85840;BMP280;76322;54.686;9.332;2024-03-08T21:48:20;101270.56;;;2.75
85840;BMP280;76322;54.686;9.332;2024-03-08T21:49:21;101269.81;;;2.75
85840;BMP280;76322;54.686;9.332;2024-03-08T21:50:23;101260.56;;;2.72
85840;BMP280;76322;54.686;9.332;2024-03-08T21:51:24;101263.66;;;2.71
85840;BMP280;76322;54.686;9.332;2024-03-08T21:52:26;101265.97;;;2.72
85840;BMP280;76322;54.686;9.332;2024-03-08T21:53:28;101263.66;;;2.71
85840;BMP280;76322;54.686;9.332;2024-03-08T21:54:36;101258.66;;;2.69
